createdAt,value
2022-12-19T00:01:37.870Z,6.80
2022-12-19T00:04:08.845Z,7.10
2022-12-19T00:06:37.845Z,6.90
2022-12-19T00:09:05.748Z,5.90
2022-12-19T00:11:33.512Z,6.80
2022-12-19T00:16:29.823Z,6.60
2022-12-19T00:19:00.171Z,8.70
2022-12-19T00:21:29.649Z,7.70
2022-12-19T00:23:56.827Z,11.60
2022-12-19T00:26:32.290Z,10.40
2022-12-19T00:29:02.509Z,8.50
2022-12-19T00:31:33.472Z,9.40
2022-12-19T00:34:01.518Z,9.30
2022-12-19T00:36:33.575Z,9.50
2022-12-19T00:39:02.267Z,11.10
2022-12-19T00:41:36.767Z,9.80
2022-12-19T00:44:06.222Z,9.10
2022-12-19T00:46:35.436Z,8.50
2022-12-19T00:49:02.691Z,8.80
2022-12-19T00:51:32.865Z,10.60
2022-12-19T00:54:00.212Z,11.10
2022-12-19T00:56:37.938Z,9.60
2022-12-19T00:59:07.194Z,9.60
2022-12-19T01:01:36.945Z,9.30
2022-12-19T01:06:53.678Z,7.50
2022-12-19T01:09:21.833Z,7.80
2022-12-19T01:12:08.475Z,6.60
2022-12-19T01:14:35.509Z,6.80
2022-12-19T01:17:02.235Z,7.20
2022-12-19T01:19:28.966Z,10.70
2022-12-19T01:21:55.732Z,9.10
2022-12-19T01:24:22.821Z,7.80
2022-12-19T01:26:49.639Z,9.70
2022-12-19T01:29:16.539Z,7.80
2022-12-19T01:31:43.466Z,8.10
2022-12-19T01:34:10.402Z,8.50
2022-12-19T01:36:40.025Z,7.30
2022-12-19T01:39:08.163Z,7.00
2022-12-19T01:41:35.760Z,7.40
2022-12-19T01:44:08.557Z,11.40
2022-12-19T01:46:48.069Z,10.60
2022-12-19T01:49:36.647Z,8.90
2022-12-19T01:52:07.464Z,8.90
2022-12-19T01:54:41.054Z,9.30
2022-12-19T01:57:13.905Z,8.70
2022-12-19T01:59:45.962Z,8.30
2022-12-19T02:02:23.566Z,7.90
2022-12-19T02:04:50.346Z,9.00
2022-12-19T02:07:20.330Z,6.80
2022-12-19T02:09:56.941Z,7.40
2022-12-19T02:12:33.834Z,6.60
2022-12-19T02:15:03.264Z,11.10
2022-12-19T02:18:03.955Z,7.90
2022-12-19T02:21:06.280Z,8.50
2022-12-19T02:23:48.158Z,6.40
2022-12-19T02:26:27.472Z,7.50
2022-12-19T02:29:00.352Z,7.60
2022-12-19T02:31:41.041Z,8.60
2022-12-19T02:34:25.595Z,8.70
2022-12-19T02:37:05.944Z,7.70
2022-12-19T02:39:46.699Z,7.70
2022-12-19T02:42:21.435Z,8.20
2022-12-19T02:44:52.203Z,12.30
2022-12-19T02:47:21.287Z,10.20
2022-12-19T02:49:49.053Z,9.00
2022-12-19T02:52:19.423Z,8.60
2022-12-19T02:54:49.318Z,9.40
2022-12-19T02:57:35.226Z,9.10
2022-12-19T03:00:13.371Z,9.80
2022-12-19T03:03:12.315Z,9.10
2022-12-19T03:06:09.191Z,8.70
2022-12-19T03:09:14.134Z,9.60
2022-12-19T03:11:42.996Z,9.90
2022-12-19T03:14:18.514Z,9.00
2022-12-19T03:16:45.639Z,8.90
2022-12-19T03:19:14.816Z,9.40
2022-12-19T03:21:45.237Z,8.20
2022-12-19T03:24:14.066Z,7.70
2022-12-19T03:27:13.344Z,7.00
2022-12-19T03:29:47.439Z,7.00
2022-12-19T03:32:16.676Z,8.80
2022-12-19T03:34:56.724Z,7.00
2022-12-19T03:37:28.323Z,6.90
2022-12-19T03:40:00.001Z,11.40
2022-12-19T03:42:48.349Z,9.80
2022-12-19T03:45:23.544Z,9.60
2022-12-19T03:48:01.598Z,9.30
2022-12-19T03:50:37.072Z,7.60
2022-12-19T03:53:28.093Z,8.40
2022-12-19T03:56:27.023Z,7.90
2022-12-19T03:59:02.168Z,7.10
2022-12-19T04:01:31.983Z,7.90
2022-12-19T04:04:00.048Z,8.20
2022-12-19T04:06:30.158Z,8.90
2022-12-19T04:08:58.506Z,11.20
2022-12-19T04:11:28.173Z,11.30
2022-12-19T04:14:01.404Z,10.20
2022-12-19T04:16:36.771Z,10.50
2022-12-19T04:19:11.509Z,10.40
2022-12-19T04:21:47.143Z,8.10
2022-12-19T04:24:24.038Z,9.10
2022-12-19T04:26:55.279Z,9.00
2022-12-19T04:29:24.965Z,7.30
2022-12-19T04:31:52.176Z,7.90
2022-12-19T04:34:20.943Z,9.10
2022-12-19T04:36:49.238Z,7.50
2022-12-19T04:39:16.034Z,11.20
2022-12-19T04:41:42.803Z,10.00
2022-12-19T04:44:09.524Z,9.80
2022-12-19T04:46:36.260Z,10.60
2022-12-19T04:49:03.133Z,11.80
2022-12-19T04:51:29.899Z,8.80
2022-12-19T04:53:57.396Z,9.40
2022-12-19T04:56:24.474Z,10.00
2022-12-19T04:58:59.360Z,7.50
2022-12-19T05:01:26.437Z,9.60
2022-12-19T05:03:55.839Z,9.00
2022-12-19T05:06:25.529Z,11.60
2022-12-19T05:08:52.263Z,10.90
2022-12-19T05:11:20.059Z,8.80
2022-12-19T05:16:16.006Z,8.70
2022-12-19T05:18:43.739Z,10.10
2022-12-19T05:21:11.117Z,8.60
2022-12-19T05:23:38.173Z,10.50
2022-12-19T05:26:06.264Z,8.80
2022-12-19T05:28:33.973Z,9.80
2022-12-19T05:31:06.485Z,14.20
2022-12-19T05:33:33.523Z,15.00
2022-12-19T05:36:00.491Z,12.00
2022-12-19T05:38:27.507Z,11.20
2022-12-19T05:40:54.221Z,10.40
2022-12-19T05:43:21.309Z,9.30
2022-12-19T05:45:47.997Z,10.50
2022-12-19T05:48:14.729Z,7.90
2022-12-19T05:50:41.945Z,7.40
2022-12-19T05:53:09.168Z,7.70
2022-12-19T05:55:35.915Z,11.70
2022-12-19T05:58:02.628Z,10.40
2022-12-19T06:00:29.470Z,10.00
2022-12-19T06:02:56.331Z,9.10
2022-12-19T06:05:23.310Z,9.90
2022-12-19T06:07:50.040Z,9.80
2022-12-19T06:10:16.842Z,9.70
2022-12-19T06:12:43.563Z,12.60
2022-12-19T06:15:10.840Z,11.60
2022-12-19T06:17:37.710Z,9.20
2022-12-19T06:20:05.185Z,10.90
2022-12-19T06:22:31.938Z,10.20
2022-12-19T06:24:58.669Z,8.70
2022-12-19T06:27:25.368Z,9.80
2022-12-19T06:29:52.073Z,10.30
2022-12-19T06:32:18.795Z,11.00
2022-12-19T06:35:03.809Z,10.60
2022-12-19T06:37:31.399Z,10.10
2022-12-19T06:39:58.142Z,8.30
2022-12-19T06:42:24.961Z,9.70
2022-12-19T06:44:54.194Z,9.40
2022-12-19T06:47:22.566Z,9.50
2022-12-19T06:49:50.325Z,10.60
2022-12-19T06:52:17.751Z,11.50
2022-12-19T06:54:44.590Z,11.90
2022-12-19T06:57:11.396Z,10.00
2022-12-19T06:59:38.139Z,13.10
2022-12-19T07:02:25.343Z,9.50
2022-12-19T07:04:59.700Z,9.00
2022-12-19T07:09:53.007Z,8.30
2022-12-19T07:12:19.734Z,8.90
2022-12-19T07:14:51.691Z,12.20
2022-12-19T07:17:21.058Z,10.40
2022-12-19T07:19:47.850Z,9.20
2022-12-19T07:22:15.109Z,9.60
2022-12-19T07:24:41.845Z,10.10
2022-12-19T07:27:08.604Z,9.30
2022-12-19T07:29:35.370Z,8.90
2022-12-19T07:32:02.083Z,8.60
2022-12-19T07:34:30.100Z,9.00
2022-12-19T07:36:56.902Z,10.50
2022-12-19T07:39:23.779Z,10.20
2022-12-19T07:41:50.519Z,9.20
2022-12-19T07:44:26.549Z,10.10
2022-12-19T07:46:53.242Z,8.80
2022-12-19T07:49:22.775Z,10.30
2022-12-19T07:51:50.692Z,9.10
2022-12-19T07:54:17.378Z,10.20
2022-12-19T07:56:44.191Z,9.10
2022-12-19T07:59:13.146Z,9.80
2022-12-19T08:01:39.981Z,11.50
2022-12-19T08:04:06.964Z,10.00
2022-12-19T08:06:39.129Z,9.70
2022-12-19T08:09:07.755Z,8.90
2022-12-19T08:11:34.608Z,9.30
2022-12-19T08:14:01.648Z,8.90
2022-12-19T08:16:28.389Z,10.30
2022-12-19T08:18:58.446Z,9.70
2022-12-19T08:21:25.458Z,9.50
2022-12-19T08:23:52.218Z,11.60
2022-12-19T08:26:25.028Z,10.90
2022-12-19T08:28:54.225Z,10.80
2022-12-19T08:31:24.426Z,11.50
2022-12-19T08:33:57.304Z,10.20
2022-12-19T08:36:24.628Z,10.20
2022-12-19T08:38:52.566Z,11.50
2022-12-19T08:41:19.807Z,11.10
2022-12-19T08:43:51.976Z,11.00
2022-12-19T08:46:20.613Z,13.20
2022-12-19T08:48:47.723Z,11.30
2022-12-19T08:51:16.674Z,11.10
2022-12-19T08:53:44.717Z,11.90
2022-12-19T08:56:20.358Z,11.90
2022-12-19T08:58:47.231Z,12.80
2022-12-19T09:01:19.223Z,11.60
2022-12-19T09:04:18.736Z,11.90
2022-12-19T09:06:34.116Z,13.60
2022-12-19T09:09:01.054Z,13.30
2022-12-19T09:11:27.926Z,11.70
2022-12-19T09:13:57.607Z,14.00
2022-12-19T09:16:26.906Z,11.30
2022-12-19T09:18:57.203Z,11.40
2022-12-19T09:21:25.380Z,11.60
2022-12-19T09:24:03.496Z,11.80
2022-12-19T09:26:34.707Z,13.70
2022-12-19T09:29:02.884Z,12.80
2022-12-19T09:31:32.124Z,11.60
2022-12-19T09:33:58.856Z,11.80
2022-12-19T09:36:26.005Z,11.00
2022-12-19T09:38:57.185Z,10.60
2022-12-19T09:41:26.635Z,9.60
2022-12-19T09:44:18.408Z,10.00
2022-12-19T09:47:00.771Z,9.70
2022-12-19T09:49:39.891Z,10.40
2022-12-19T09:52:33.201Z,13.80
2022-12-19T09:55:12.072Z,12.60
2022-12-19T09:57:52.680Z,11.80
2022-12-19T10:00:22.095Z,12.50
2022-12-19T10:03:07.916Z,12.90
2022-12-19T10:06:38.605Z,11.90
2022-12-19T10:09:49.985Z,11.00
2022-12-19T10:12:39.795Z,12.50
2022-12-19T10:15:06.710Z,13.70
2022-12-19T10:18:06.334Z,12.70
2022-12-19T10:20:38.763Z,12.20
2022-12-19T10:23:45.135Z,12.00
2022-12-19T10:26:29.993Z,13.00
2022-12-19T10:29:03.226Z,12.20
2022-12-19T10:31:41.836Z,12.30
2022-12-19T10:34:21.171Z,12.40
2022-12-19T10:39:57.081Z,12.00
2022-12-19T10:42:45.396Z,13.10
2022-12-19T10:45:19.134Z,13.00
2022-12-19T10:47:57.566Z,13.10
2022-12-19T10:50:27.842Z,13.60
2022-12-19T10:53:07.389Z,13.50
2022-12-19T10:55:47.461Z,13.90
2022-12-19T10:58:34.613Z,16.00
2022-12-19T11:01:12.164Z,10.10
2022-12-19T11:03:41.908Z,13.10
2022-12-19T11:06:37.683Z,15.30
2022-12-19T11:09:18.807Z,15.50
2022-12-19T11:17:37.129Z,16.50
2022-12-19T11:19:27.532Z,15.70
2022-12-19T11:26:32.403Z,16.80
2022-12-19T11:29:33.695Z,15.30
2022-12-19T11:30:07.046Z,15.30
2022-12-19T11:30:43.939Z,18.10
2022-12-19T11:33:19.115Z,19.20
2022-12-19T11:35:58.975Z,19.80
2022-12-19T11:38:52.923Z,17.00
2022-12-19T11:41:31.365Z,18.30
2022-12-19T11:44:27.503Z,17.50
2022-12-19T11:47:11.433Z,18.30
2022-12-19T11:49:47.418Z,17.80
2022-12-19T11:53:06.922Z,17.50
2022-12-19T11:55:54.662Z,17.40
2022-12-19T11:58:24.320Z,17.00
2022-12-19T12:01:00.288Z,18.40
2022-12-19T12:03:39.371Z,18.70
2022-12-19T12:06:16.933Z,17.80
2022-12-19T12:11:02.007Z,17.90
2022-12-19T12:21:08.965Z,18.60
2022-12-19T12:30:59.355Z,16.70
2022-12-19T12:31:21.496Z,16.40
2022-12-19T12:31:27.091Z,18.40
2022-12-19T12:31:41.877Z,17.50
2022-12-19T12:31:44.723Z,20.50
2022-12-19T12:37:18.826Z,18.60
2022-12-19T12:40:03.352Z,16.20
2022-12-19T12:42:51.389Z,17.00
2022-12-19T12:45:31.457Z,17.70
2022-12-19T12:47:58.225Z,19.20
2022-12-19T12:50:26.708Z,19.20
2022-12-19T12:52:57.084Z,18.60
2022-12-19T12:55:34.652Z,18.80
2022-12-19T12:58:01.399Z,17.90
2022-12-19T13:00:30.613Z,18.20
2022-12-19T13:02:57.394Z,19.00
2022-12-19T13:05:29.861Z,18.30
2022-12-19T13:07:56.628Z,18.10
2022-12-19T13:10:54.207Z,20.50
2022-12-19T13:13:51.498Z,18.20
2022-12-19T13:16:43.233Z,19.50
2022-12-19T13:19:29.441Z,17.40
2022-12-19T13:22:07.407Z,18.30
2022-12-19T13:24:52.517Z,17.70
2022-12-19T13:27:19.214Z,17.00
2022-12-19T13:30:01.989Z,17.10
2022-12-19T13:32:40.872Z,17.80
2022-12-19T13:36:15.490Z,16.90
2022-12-19T13:39:54.404Z,18.30
2022-12-19T13:41:59.266Z,15.30
2022-12-19T13:44:27.006Z,15.90
2022-12-19T13:49:34.640Z,16.10
2022-12-19T13:52:04.211Z,17.70
2022-12-19T13:54:46.799Z,18.50
2022-12-19T13:57:29.234Z,17.70
2022-12-19T14:00:02.062Z,18.20
2022-12-19T14:02:44.786Z,19.40
2022-12-19T14:06:16.096Z,17.80
2022-12-19T14:08:28.514Z,17.60
2022-12-19T14:11:34.351Z,17.50
2022-12-19T14:14:30.619Z,18.90
2022-12-19T14:17:06.984Z,16.90
2022-12-19T14:19:40.670Z,18.40
2022-12-19T14:22:26.997Z,19.20
2022-12-19T14:24:53.950Z,20.20
2022-12-19T14:28:18.228Z,17.20
2022-12-19T14:30:35.982Z,17.10
2022-12-19T14:33:44.991Z,18.80
2022-12-19T14:36:12.464Z,17.00
2022-12-19T14:39:25.475Z,17.80
2022-12-19T14:42:13.974Z,17.30
2022-12-19T14:52:25.597Z,16.80
2022-12-19T14:54:09.465Z,19.10
2022-12-19T14:54:11.327Z,16.90
2022-12-19T14:54:46.701Z,17.90
2022-12-19T14:59:21.493Z,14.60
2022-12-19T15:02:00.908Z,16.50
2022-12-19T15:04:51.026Z,17.20
2022-12-19T15:07:26.854Z,16.90
2022-12-19T15:11:03.471Z,17.30
2022-12-19T15:14:48.129Z,16.60
2022-12-19T15:15:54.983Z,16.60
2022-12-19T15:18:23.284Z,16.80
2022-12-19T15:20:51.461Z,17.10
2022-12-19T15:23:22.247Z,17.50
2022-12-19T15:26:07.407Z,17.10
2022-12-19T15:28:43.439Z,15.90
2022-12-19T15:31:24.499Z,15.70
2022-12-19T15:34:32.450Z,17.80
2022-12-19T15:36:38.031Z,17.50
2022-12-19T15:39:04.854Z,17.30
2022-12-19T15:41:31.782Z,16.80
2022-12-19T15:44:04.246Z,17.10
2022-12-19T15:46:32.640Z,17.40
2022-12-19T15:48:59.558Z,18.20
2022-12-19T15:51:26.283Z,19.70
2022-12-19T15:53:53.544Z,18.00
2022-12-19T15:56:21.594Z,16.20
2022-12-19T15:58:48.398Z,17.00
2022-12-19T16:01:15.240Z,18.00
2022-12-19T16:03:42.347Z,18.40
2022-12-19T16:06:14.178Z,17.60
2022-12-19T16:08:41.421Z,16.70
2022-12-19T16:11:21.744Z,17.80
2022-12-19T16:14:06.455Z,16.40
2022-12-19T16:16:33.219Z,17.10
2022-12-19T16:18:59.995Z,16.20
2022-12-19T16:21:33.719Z,15.30
2022-12-19T16:24:01.222Z,16.80
2022-12-19T16:26:33.438Z,16.30
2022-12-19T16:29:00.765Z,15.60
2022-12-19T16:31:28.224Z,20.30
2022-12-19T16:33:55.065Z,17.50
2022-12-19T16:36:22.170Z,17.40
2022-12-19T16:38:49.064Z,17.50
2022-12-19T16:41:22.752Z,16.70
2022-12-19T16:43:49.865Z,17.30
2022-12-19T16:46:22.157Z,19.00
2022-12-19T16:48:49.866Z,17.20
2022-12-19T16:51:20.386Z,19.20
2022-12-19T16:53:48.546Z,17.30
2022-12-19T16:56:23.267Z,19.30
2022-12-19T16:58:51.118Z,18.20
2022-12-19T17:03:45.201Z,19.50
2022-12-19T17:06:14.533Z,16.80
2022-12-19T17:08:41.561Z,17.70
2022-12-19T17:11:26.094Z,20.40
2022-12-19T17:14:00.577Z,23.30
2022-12-19T17:16:27.466Z,20.40
2022-12-19T17:18:54.266Z,17.00
2022-12-19T17:21:22.924Z,22.30
2022-12-19T17:23:50.755Z,20.90
2022-12-19T17:26:18.331Z,18.20
2022-12-19T17:28:49.020Z,17.50
2022-12-19T17:31:28.652Z,18.10
2022-12-19T17:33:58.191Z,19.70
2022-12-19T17:36:36.532Z,15.80
2022-12-19T17:39:29.948Z,17.90
2022-12-19T17:42:22.133Z,19.20
2022-12-19T17:44:48.874Z,15.70
2022-12-19T17:47:17.278Z,21.30
2022-12-19T17:49:44.001Z,21.00
2022-12-19T17:52:15.088Z,17.30
2022-12-19T17:54:41.823Z,21.40
2022-12-19T17:57:16.220Z,19.70
2022-12-19T17:59:43.560Z,21.20
2022-12-19T18:02:24.089Z,19.50
2022-12-19T18:04:52.160Z,18.10
2022-12-19T18:07:19.359Z,18.90
2022-12-19T18:09:46.392Z,17.20
2022-12-19T18:12:14.357Z,21.40
2022-12-19T18:14:41.078Z,18.70
2022-12-19T18:17:12.348Z,18.90
2022-12-19T18:19:39.421Z,19.70
2022-12-19T18:22:14.638Z,19.40
2022-12-19T18:24:41.725Z,19.60
2022-12-19T18:27:08.750Z,18.20
2022-12-19T18:29:35.532Z,17.40
2022-12-19T18:32:02.402Z,18.90
2022-12-19T18:36:57.844Z,17.30
2022-12-19T18:39:27.694Z,20.70
2022-12-19T18:41:55.130Z,19.90
2022-12-19T18:44:23.218Z,19.40
2022-12-19T18:46:51.476Z,19.00
2022-12-19T18:49:18.735Z,19.10
2022-12-19T18:51:45.765Z,19.40
2022-12-19T18:54:18.680Z,17.90
2022-12-19T18:56:47.064Z,17.70
2022-12-19T19:04:12.275Z,17.40
2022-12-19T19:06:42.088Z,21.40
2022-12-19T19:11:49.762Z,19.00
2022-12-19T19:14:16.495Z,19.00
2022-12-19T19:16:43.356Z,18.60
2022-12-19T19:19:14.528Z,19.40
2022-12-19T19:21:42.880Z,18.90
2022-12-19T19:24:14.359Z,17.10
2022-12-19T19:26:41.077Z,17.50
2022-12-19T19:29:07.850Z,18.90
2022-12-19T19:31:38.647Z,18.10
2022-12-19T19:34:15.501Z,19.20
2022-12-19T19:36:47.237Z,17.60
2022-12-19T19:39:14.129Z,17.60
2022-12-19T19:41:40.999Z,17.90
2022-12-19T19:44:07.842Z,17.90
2022-12-19T19:46:34.714Z,17.70
2022-12-19T19:49:01.511Z,18.90
2022-12-19T19:51:29.040Z,18.40
2022-12-19T19:53:56.388Z,23.00
2022-12-19T19:56:23.189Z,20.60
2022-12-19T19:58:49.981Z,18.40
2022-12-19T20:01:16.827Z,20.30
2022-12-19T20:03:44.950Z,17.10
2022-12-19T20:06:12.224Z,18.30
2022-12-19T20:08:40.407Z,18.50
2022-12-19T20:11:09.230Z,16.90
2022-12-19T20:13:37.669Z,15.90
2022-12-19T20:16:07.098Z,15.70
2022-12-19T20:18:35.401Z,21.50
2022-12-19T20:21:02.770Z,19.20
2022-12-19T20:23:31.456Z,17.10
2022-12-19T20:26:02.532Z,16.40
2022-12-19T20:28:30.181Z,16.70
2022-12-19T20:30:57.805Z,17.50
2022-12-19T20:33:24.588Z,16.40
2022-12-19T20:35:56.436Z,16.50
2022-12-19T20:38:23.969Z,15.80
2022-12-19T20:40:55.993Z,15.50
2022-12-19T20:43:23.879Z,18.70
2022-12-19T20:48:18.551Z,16.30
2022-12-19T20:50:45.249Z,17.00
2022-12-19T20:53:12.075Z,16.60
2022-12-19T20:55:38.851Z,17.20
2022-12-19T20:58:05.552Z,15.90
2022-12-19T21:00:32.346Z,17.70
2022-12-19T21:03:27.187Z,16.20
2022-12-19T21:05:54.898Z,15.30
2022-12-19T21:08:22.972Z,17.60
2022-12-19T21:10:49.832Z,14.30
2022-12-19T21:13:17.187Z,15.60
2022-12-19T21:15:44.354Z,16.60
2022-12-19T21:18:11.200Z,15.60
2022-12-19T21:20:38.626Z,16.30
2022-12-19T21:23:05.668Z,17.40
2022-12-19T21:25:32.467Z,17.10
2022-12-19T21:27:59.270Z,15.90
2022-12-19T21:30:26.043Z,15.30
2022-12-19T21:32:52.782Z,19.20
2022-12-19T21:35:19.646Z,18.30
2022-12-19T21:37:50.227Z,15.30
2022-12-19T21:40:18.013Z,16.50
2022-12-19T21:45:12.642Z,14.70
2022-12-19T21:47:40.122Z,15.30
2022-12-19T21:50:08.723Z,16.20
2022-12-19T21:52:35.477Z,16.30
2022-12-19T21:55:02.632Z,16.10
2022-12-19T21:57:29.375Z,17.40
2022-12-19T21:59:56.085Z,17.20
2022-12-19T22:02:22.943Z,15.70
2022-12-19T22:04:50.399Z,17.20
2022-12-19T22:07:17.125Z,16.60
2022-12-19T22:09:43.829Z,17.80
2022-12-19T22:12:13.021Z,16.50
2022-12-19T22:14:39.824Z,16.00
2022-12-19T22:17:06.668Z,17.10
2022-12-19T22:19:33.450Z,15.90
2022-12-19T22:22:00.168Z,18.40
2022-12-19T22:24:26.890Z,16.80
2022-12-19T22:26:54.374Z,16.40
2022-12-19T22:31:49.556Z,14.60
2022-12-19T22:34:19.490Z,14.70
2022-12-19T22:36:46.978Z,15.40
2022-12-19T22:39:17.765Z,15.20
2022-12-19T22:41:45.317Z,16.60
2022-12-19T22:44:17.629Z,17.30
2022-12-19T22:46:44.515Z,15.00
2022-12-19T22:49:11.598Z,15.30
2022-12-19T22:51:38.362Z,14.10
2022-12-19T22:54:06.434Z,16.30
2022-12-19T22:56:34.966Z,15.80
2022-12-19T22:59:05.722Z,15.10
2022-12-19T23:01:36.999Z,16.00
2022-12-19T23:04:05.087Z,16.60
2022-12-19T23:06:34.096Z,17.60
2022-12-19T23:09:01.105Z,15.70
2022-12-19T23:11:33.946Z,17.20
2022-12-19T23:14:02.760Z,17.20
2022-12-19T23:16:29.639Z,16.80
2022-12-19T23:18:56.428Z,15.80
2022-12-19T23:21:24.828Z,15.60
2022-12-19T23:23:53.926Z,15.30
2022-12-19T23:26:24.205Z,17.60
2022-12-19T23:28:57.027Z,17.40
2022-12-19T23:31:24.511Z,14.50
2022-12-19T23:33:51.701Z,14.90
2022-12-19T23:36:38.088Z,17.00
2022-12-19T23:39:05.916Z,12.30
2022-12-19T23:41:33.287Z,16.90
2022-12-19T23:44:00.135Z,17.00
2022-12-19T23:46:28.516Z,13.90
2022-12-19T23:48:56.101Z,18.80
2022-12-19T23:51:25.651Z,19.70
2022-12-19T23:53:53.460Z,18.80
2022-12-19T23:56:23.976Z,16.80
2022-12-19T23:58:51.420Z,16.70
